Island Escape — C6SK4 — position and weather

sailwx.info

Track history (hours):
 
Tides and Currents Weather Stations Pressure Air Temp Water Temp Dewpoint Dewpoint Depression Visibility Wind Speed Wind Dir Waves Ship Positions

Island Escape

Operator: V Ships Leisure SAM

Last reported at 2014-Jul-23 07:19 UTC. Time now 2014-Jul-23 08:03 UTC.
Position N 39°40' E 004°34'.

Length 185 m; draft 7.3 m.

Type: Passenger vessel. MMSI: 311368000.

Date/timePositionNaut miles runAvg speedWind from/ knotsBaromVisibWave heightAir tempDewpointWater temp
2014-Jul-23 07:19N 39°40' E 004°34'911.0
2014-Jul-23 06:32N 39°36' E 004°24'1111.0
2014-Jul-23 05:32N 39°31' E 004°12'1111.2
2014-Jul-23 04:33N 39°26' E 003°59'1211.2
2014-Jul-23 03:28N 39°20' E 003°45'1011.4
2014-Jul-23 02:33N 39°15' E 003°33'1111.3
2014-Jul-23 01:33N 39°10' E 003°20'1212.1
2014-Jul-23 00:33N 39°04' E 003°06'1211.6
2014-Jul-22 23:33N 39°02' E 002°52'1212.0
2014-Jul-22 22:33N 39°13' E 002°46'1313.2
2014-Jul-22 21:33N 39°26' E 002°41'8 7.5
2014-Jul-22 20:31N 39°33' E 002°38'0 0.0
2014-Jul-22 19:31N 39°33' E 002°38'0 0.0
2014-Jul-22 18:31N 39°33' E 002°38'0 0.0
2014-Jul-22 17:31N 39°33' E 002°38'0 0.0
2014-Jul-22 16:31N 39°33' E 002°38'0 0.0
2014-Jul-22 15:31N 39°33' E 002°38'0 0.0
2014-Jul-22 14:31N 39°33' E 002°38'0 0.0
2014-Jul-22 13:31N 39°33' E 002°38'0 0.0
2014-Jul-22 12:31N 39°33' E 002°38'0 0.0
2014-Jul-22 11:31N 39°33' E 002°38'0 0.0
2014-Jul-22 10:31N 39°33' E 002°38'0 0.0
2014-Jul-22 09:31N 39°33' E 002°38'0 0.0
2014-Jul-22 08:31N 39°33' E 002°38'0 0.0
2014-Jul-22 07:31N 39°33' E 002°38'0 0.0
2014-Jul-22 06:31N 39°33' E 002°38'0 0.0
2014-Jul-22 05:31N 39°33' E 002°38'0 0.0
2014-Jul-22 04:31N 39°33' E 002°38'0 0.1
2014-Jul-22 03:33N 39°33' E 002°38'6 6.2
2014-Jul-22 02:33N 39°27' E 002°35'1312.6
2014-Jul-22 01:33N 39°25' E 002°19'1212.5
2014-Jul-22 00:33N 39°24' E 002°03'1313.2
2014-Jul-21 23:33N 39°24' E 001°46'1313.1
2014-Jul-21 22:33N 39°25' E 001°29'3613.2
2014-Jul-21 19:51N 39°25' E 000°43'3013.3
2014-Jul-21 17:33N 39°25' E 000°03'1514.7
2014-Jul-21 16:33N 39°25' W 000°16'4 3.8
2014-Jul-21 15:31N 39°27' W 000°19'0 0.0
2014-Jul-21 14:28N 39°27' W 000°19'0 0.0
2014-Jul-21 13:31N 39°27' W 000°19'0 0.0
2014-Jul-21 12:31N 39°27' W 000°20'0 0.0
2014-Jul-21 11:31N 39°27' W 000°19'0 0.0
2014-Jul-21 10:29N 39°27' W 000°20'0 0.0
2014-Jul-21 09:32N 39°27' W 000°20'0 0.0
2014-Jul-21 08:29N 39°27' W 000°20'0 0.0
2014-Jul-21 07:32N 39°27' W 000°19'0 0.0
2014-Jul-21 06:32N 39°27' W 000°19'0 0.1
2014-Jul-21 05:33N 39°27' W 000°19'9 8.8
2014-Jul-21 04:29N 39°22' W 000°10'3913.1
2014-Jul-21 01:32N 38°53' E 000°24'1111.4
2014-Jul-21 00:33N 38°42' E 000°27'1512.6
2014-Jul-20 23:20N 38°29' E 000°17'2714.7
2014-Jul-20 21:28N 38°07' W 000°03'1412.0
2014-Jul-20 20:17N 37°55' W 000°13'5 6.1
2014-Jul-20 19:32N 37°51' W 000°16'1716.4
2014-Jul-20 18:28N 37°37' W 000°29'6 6.8
2014-Jul-20 17:33N 37°31' W 000°33'1615.9
2014-Jul-20 16:32N 37°31' W 000°53'32 2.3
2014-Jul-20 02:32N 37°05' W 001°16'1313.2
2014-Jul-20 01:33N 36°54' W 001°24'1412.8
2014-Jul-20 00:25N 36°44' W 001°37'187 3.7
2014-Jul-17 21:30N 36°02' W 005°24'264 7.3
2014-Jul-16 09:13N 37°28' W 000°11'2412.9
2014-Jul-16 07:20N 37°41' E 000°14'1416.8
2014-Jul-16 06:28N 37°49' E 000°30'1516.6
2014-Jul-16 05:33N 37°58' E 000°46'6415.7
2014-Jul-16 01:30N 38°34' E 001°52'1516.1
2014-Jul-16 00:33N 38°48' E 002°02'1716.5
2014-Jul-15 23:32N 39°02' E 002°13'1616.4
2014-Jul-15 22:33N 39°15' E 002°25'1616.5
2014-Jul-15 21:33N 39°29' E 002°37'5 4.5
2014-Jul-15 20:33N 39°33' E 002°38'0 0.0
2014-Jul-15 19:33N 39°33' E 002°38'0 0.0
2014-Jul-15 18:33N 39°33' E 002°38'0 0.0
2014-Jul-15 17:33N 39°33' E 002°38'0 0.0
2014-Jul-15 16:33N 39°33' E 002°38'0 0.0
2014-Jul-15 15:33N 39°33' E 002°38'0 0.0
2014-Jul-15 14:33N 39°33' E 002°38'0 0.0
2014-Jul-15 13:33N 39°33' E 002°38'0 0.0
2014-Jul-15 12:33N 39°33' E 002°38'0 0.0
2014-Jul-15 11:33N 39°33' E 002°38'0 0.0
2014-Jul-15 10:33N 39°33' E 002°38'0 0.0
2014-Jul-15 09:33N 39°33' E 002°38'0 0.0
2014-Jul-15 08:33N 39°33' E 002°38'0 0.0
2014-Jul-15 07:33N 39°33' E 002°38'0 0.0
2014-Jul-15 06:33N 39°33' E 002°38'0 0.0
2014-Jul-15 05:33N 39°33' E 002°38'0 0.0
2014-Jul-15 04:33N 39°33' E 002°38'0 0.2
2014-Jul-15 03:33N 39°33' E 002°38'6 6.3
2014-Jul-15 02:33N 39°27' E 002°35'1313.5
2014-Jul-15 01:33N 39°31' E 002°18'1211.5
2014-Jul-15 00:33N 39°42' E 002°17'1313.0
2014-Jul-14 23:33N 39°55' E 002°22'1313.5
2014-Jul-14 22:33N 40°08' E 002°27'1313.1
2014-Jul-14 21:33N 40°20' E 002°32'1313.4
2014-Jul-14 20:33N 40°33' E 002°37'1313.3
2014-Jul-14 19:33N 40°46' E 002°42'1212.4
2014-Jul-14 18:33N 40°58' E 002°46'1817.7
2014-Jul-14 17:32N 41°15' E 002°53'1716.9
2014-Jul-14 16:32N 41°31' E 002°59'20 2.0
2014-Jul-14 06:23N 41°51' E 003°07'6 7.0
2014-Jul-14 05:28N 41°51' E 003°16'1415.6
2014-Jul-14 04:34N 41°58' E 003°33'1413.9
2014-Jul-14 03:34N 42°03' E 003°50'1413.8
2014-Jul-14 02:34N 42°09' E 004°07'1413.7
2014-Jul-14 01:33N 42°14' E 004°24'1313.2
2014-Jul-14 00:33N 42°20' E 004°40'1212.2
2014-Jul-13 23:33N 42°25' E 004°55'1010.2
2014-Jul-13 22:33N 42°29' E 005°08'1111.0
2014-Jul-13 21:33N 42°33' E 005°22'1715.9
2014-Jul-13 20:30N 42°40' E 005°42'1515.8
2014-Jul-13 19:33N 42°46' E 006°01'1716.8
2014-Jul-13 18:33N 42°53' E 006°22'1716.6
2014-Jul-13 17:33N 43°02' E 006°41'1717.0
2014-Jul-13 16:33N 43°16' E 006°55'1615.8
2014-Jul-13 15:33N 43°31' E 007°01'2 1.4
2014-Jul-13 14:28N 43°32' E 007°01'0 0.0
2014-Jul-13 13:28N 43°32' E 007°01'0 0.0
2014-Jul-13 12:28N 43°32' E 007°01'0 0.0
2014-Jul-13 11:22N 43°32' E 007°01'0 0.0
2014-Jul-13 10:28N 43°32' E 007°01'0 0.0
2014-Jul-13 09:28N 43°32' E 007°01'0 0.0
2014-Jul-13 08:16N 43°32' E 007°01'0 0.0
2014-Jul-13 07:28N 43°32' E 007°01'  
Track history (hours):
 
Tides and Currents Weather Stations Pressure Air Temp Water Temp Dewpoint Dewpoint Depression Visibility Wind Speed Wind Dir Waves Ship Positions

Island Escape

Operator: V Ships Leisure SAM

Last reported at 2014-Jul-23 07:19 UTC. Time now 2014-Jul-23 08:03 UTC.
Position N 39°40' E 004°34'.

Length 185 m; draft 7.3 m.

Type: Passenger vessel. MMSI: 311368000.

Date/timePositionNaut miles runAvg speedWind from/ knotsBaromVisibWave heightAir tempDewpointWater temp
2014-Jul-23 07:19N 39°40' E 004°34'911.0
2014-Jul-23 06:32N 39°36' E 004°24'1111.0
2014-Jul-23 05:32N 39°31' E 004°12'1111.2
2014-Jul-23 04:33N 39°26' E 003°59'1211.2
2014-Jul-23 03:28N 39°20' E 003°45'1011.4
2014-Jul-23 02:33N 39°15' E 003°33'1111.3
2014-Jul-23 01:33N 39°10' E 003°20'1212.1
2014-Jul-23 00:33N 39°04' E 003°06'1211.6
2014-Jul-22 23:33N 39°02' E 002°52'1212.0
2014-Jul-22 22:33N 39°13' E 002°46'1313.2
2014-Jul-22 21:33N 39°26' E 002°41'8 7.5
2014-Jul-22 20:31N 39°33' E 002°38'0 0.0
2014-Jul-22 19:31N 39°33' E 002°38'0 0.0
2014-Jul-22 18:31N 39°33' E 002°38'0 0.0
2014-Jul-22 17:31N 39°33' E 002°38'0 0.0
2014-Jul-22 16:31N 39°33' E 002°38'0 0.0
2014-Jul-22 15:31N 39°33' E 002°38'0 0.0
2014-Jul-22 14:31N 39°33' E 002°38'0 0.0
2014-Jul-22 13:31N 39°33' E 002°38'0 0.0
2014-Jul-22 12:31N 39°33' E 002°38'0 0.0
2014-Jul-22 11:31N 39°33' E 002°38'0 0.0
2014-Jul-22 10:31N 39°33' E 002°38'0 0.0
2014-Jul-22 09:31N 39°33' E 002°38'0 0.0
2014-Jul-22 08:31N 39°33' E 002°38'0 0.0
2014-Jul-22 07:31N 39°33' E 002°38'0 0.0
2014-Jul-22 06:31N 39°33' E 002°38'0 0.0
2014-Jul-22 05:31N 39°33' E 002°38'0 0.0
2014-Jul-22 04:31N 39°33' E 002°38'0 0.1
2014-Jul-22 03:33N 39°33' E 002°38'6 6.2
2014-Jul-22 02:33N 39°27' E 002°35'1312.6
2014-Jul-22 01:33N 39°25' E 002°19'1212.5
2014-Jul-22 00:33N 39°24' E 002°03'1313.2
2014-Jul-21 23:33N 39°24' E 001°46'1313.1
2014-Jul-21 22:33N 39°25' E 001°29'3613.2
2014-Jul-21 19:51N 39°25' E 000°43'3013.3
2014-Jul-21 17:33N 39°25' E 000°03'1514.7
2014-Jul-21 16:33N 39°25' W 000°16'4 3.8
2014-Jul-21 15:31N 39°27' W 000°19'0 0.0
2014-Jul-21 14:28N 39°27' W 000°19'0 0.0
2014-Jul-21 13:31N 39°27' W 000°19'0 0.0
2014-Jul-21 12:31N 39°27' W 000°20'0 0.0
2014-Jul-21 11:31N 39°27' W 000°19'0 0.0
2014-Jul-21 10:29N 39°27' W 000°20'0 0.0
2014-Jul-21 09:32N 39°27' W 000°20'0 0.0
2014-Jul-21 08:29N 39°27' W 000°20'0 0.0
2014-Jul-21 07:32N 39°27' W 000°19'0 0.0
2014-Jul-21 06:32N 39°27' W 000°19'0 0.1
2014-Jul-21 05:33N 39°27' W 000°19'9 8.8
2014-Jul-21 04:29N 39°22' W 000°10'3913.1
2014-Jul-21 01:32N 38°53' E 000°24'1111.4
2014-Jul-21 00:33N 38°42' E 000°27'1512.6
2014-Jul-20 23:20N 38°29' E 000°17'2714.7
2014-Jul-20 21:28N 38°07' W 000°03'1412.0
2014-Jul-20 20:17N 37°55' W 000°13'5 6.1
2014-Jul-20 19:32N 37°51' W 000°16'1716.4
2014-Jul-20 18:28N 37°37' W 000°29'6 6.8
2014-Jul-20 17:33N 37°31' W 000°33'1615.9
2014-Jul-20 16:32N 37°31' W 000°53'32 2.3
2014-Jul-20 02:32N 37°05' W 001°16'1313.2
2014-Jul-20 01:33N 36°54' W 001°24'1412.8
2014-Jul-20 00:25N 36°44' W 001°37'187 3.7
2014-Jul-17 21:30N 36°02' W 005°24'264 7.3
2014-Jul-16 09:13N 37°28' W 000°11'2412.9
2014-Jul-16 07:20N 37°41' E 000°14'1416.8
2014-Jul-16 06:28N 37°49' E 000°30'1516.6
2014-Jul-16 05:33N 37°58' E 000°46'6415.7
2014-Jul-16 01:30N 38°34' E 001°52'1516.1
2014-Jul-16 00:33N 38°48' E 002°02'1716.5
2014-Jul-15 23:32N 39°02' E 002°13'1616.4
2014-Jul-15 22:33N 39°15' E 002°25'1616.5
2014-Jul-15 21:33N 39°29' E 002°37'5 4.5
2014-Jul-15 20:33N 39°33' E 002°38'0 0.0
2014-Jul-15 19:33N 39°33' E 002°38'0 0.0
2014-Jul-15 18:33N 39°33' E 002°38'0 0.0
2014-Jul-15 17:33N 39°33' E 002°38'0 0.0
2014-Jul-15 16:33N 39°33' E 002°38'0 0.0
2014-Jul-15 15:33N 39°33' E 002°38'0 0.0
2014-Jul-15 14:33N 39°33' E 002°38'0 0.0
2014-Jul-15 13:33N 39°33' E 002°38'0 0.0
2014-Jul-15 12:33N 39°33' E 002°38'0 0.0
2014-Jul-15 11:33N 39°33' E 002°38'0 0.0
2014-Jul-15 10:33N 39°33' E 002°38'0 0.0
2014-Jul-15 09:33N 39°33' E 002°38'0 0.0
2014-Jul-15 08:33N 39°33' E 002°38'0 0.0
2014-Jul-15 07:33N 39°33' E 002°38'0 0.0
2014-Jul-15 06:33N 39°33' E 002°38'0 0.0
2014-Jul-15 05:33N 39°33' E 002°38'0 0.0
2014-Jul-15 04:33N 39°33' E 002°38'0 0.2
2014-Jul-15 03:33N 39°33' E 002°38'6 6.3
2014-Jul-15 02:33N 39°27' E 002°35'1313.5
2014-Jul-15 01:33N 39°31' E 002°18'1211.5
2014-Jul-15 00:33N 39°42' E 002°17'1313.0
2014-Jul-14 23:33N 39°55' E 002°22'1313.5
2014-Jul-14 22:33N 40°08' E 002°27'1313.1
2014-Jul-14 21:33N 40°20' E 002°32'1313.4
2014-Jul-14 20:33N 40°33' E 002°37'1313.3
2014-Jul-14 19:33N 40°46' E 002°42'1212.4
2014-Jul-14 18:33N 40°58' E 002°46'1817.7
2014-Jul-14 17:32N 41°15' E 002°53'1716.9
2014-Jul-14 16:32N 41°31' E 002°59'20 2.0
2014-Jul-14 06:23N 41°51' E 003°07'6 7.0
2014-Jul-14 05:28N 41°51' E 003°16'1415.6
2014-Jul-14 04:34N 41°58' E 003°33'1413.9
2014-Jul-14 03:34N 42°03' E 003°50'1413.8
2014-Jul-14 02:34N 42°09' E 004°07'1413.7
2014-Jul-14 01:33N 42°14' E 004°24'1313.2
2014-Jul-14 00:33N 42°20' E 004°40'1212.2
2014-Jul-13 23:33N 42°25' E 004°55'1010.2
2014-Jul-13 22:33N 42°29' E 005°08'1111.0
2014-Jul-13 21:33N 42°33' E 005°22'1715.9
2014-Jul-13 20:30N 42°40' E 005°42'1515.8
2014-Jul-13 19:33N 42°46' E 006°01'1716.8
2014-Jul-13 18:33N 42°53' E 006°22'1716.6
2014-Jul-13 17:33N 43°02' E 006°41'1717.0
2014-Jul-13 16:33N 43°16' E 006°55'1615.8
2014-Jul-13 15:33N 43°31' E 007°01'2 1.4
2014-Jul-13 14:28N 43°32' E 007°01'0 0.0
2014-Jul-13 13:28N 43°32' E 007°01'0 0.0
2014-Jul-13 12:28N 43°32' E 007°01'0 0.0
2014-Jul-13 11:22N 43°32' E 007°01'0 0.0
2014-Jul-13 10:28N 43°32' E 007°01'0 0.0
2014-Jul-13 09:28N 43°32' E 007°01'0 0.0
2014-Jul-13 08:16N 43°32' E 007°01'0 0.0
2014-Jul-13 07:28N 43°32' E 007°01'  

Dump ship's entire track history